createdAt,value
2022-10-06T00:00:13.133Z,3.75
2022-10-06T00:02:40.071Z,7.85
2022-10-06T00:05:07.275Z,4.75
2022-10-06T00:07:35.792Z,3.42
2022-10-06T00:10:03.272Z,3.72
2022-10-06T00:12:30.158Z,2.97
2022-10-06T00:14:56.998Z,3.03
2022-10-06T00:17:23.913Z,3.50
2022-10-06T00:19:50.744Z,4.47
2022-10-06T00:22:17.624Z,3.88
2022-10-06T00:24:44.465Z,5.55
2022-10-06T00:27:11.314Z,4.50
2022-10-06T00:29:38.456Z,4.30
2022-10-06T00:32:05.300Z,5.78
2022-10-06T00:34:32.244Z,4.22
2022-10-06T00:36:59.097Z,7.93
2022-10-06T00:39:25.912Z,8.55
2022-10-06T00:41:53.130Z,6.78
2022-10-06T00:44:20.042Z,6.18
2022-10-06T00:46:50.596Z,6.93
2022-10-06T00:49:23.805Z,6.68
2022-10-06T00:52:12.066Z,6.72
2022-10-06T00:54:39.334Z,8.05
2022-10-06T00:57:07.387Z,7.15
2022-10-06T00:59:36.246Z,8.85
2022-10-06T01:02:13.592Z,8.23
2022-10-06T01:04:45.181Z,7.82
2022-10-06T01:07:12.352Z,10.90
2022-10-06T01:09:40.233Z,6.75
2022-10-06T01:12:09.289Z,7.70
2022-10-06T01:14:38.877Z,5.60
2022-10-06T01:17:23.941Z,6.00
2022-10-06T01:20:01.212Z,9.43
2022-10-06T01:22:34.221Z,8.27
2022-10-06T01:25:02.621Z,6.78
2022-10-06T01:27:32.144Z,8.45
2022-10-06T01:30:00.150Z,8.98
2022-10-06T01:32:34.470Z,7.13
2022-10-06T01:35:01.372Z,6.05
2022-10-06T01:37:28.829Z,7.43
2022-10-06T01:39:55.714Z,7.85
2022-10-06T01:42:24.480Z,8.52
2022-10-06T01:44:51.705Z,7.93
2022-10-06T01:47:18.611Z,9.00
2022-10-06T01:49:46.970Z,8.50
2022-10-06T01:52:14.950Z,8.98
2022-10-06T01:54:41.809Z,8.25
2022-10-06T01:57:08.904Z,7.78
2022-10-06T01:59:35.789Z,7.22
2022-10-06T02:02:03.485Z,7.82
2022-10-06T02:04:31.688Z,8.05
2022-10-06T02:06:59.087Z,8.57
2022-10-06T02:09:26.620Z,6.63
2022-10-06T02:11:54.942Z,6.68
2022-10-06T02:14:21.898Z,4.50
2022-10-06T02:16:48.851Z,5.40
2022-10-06T02:19:16.501Z,7.28
2022-10-06T02:21:43.450Z,4.90
2022-10-06T02:24:10.458Z,6.55
2022-10-06T02:26:37.478Z,3.85
2022-10-06T02:29:05.010Z,4.05
2022-10-06T02:31:31.981Z,4.70
2022-10-06T02:33:59.105Z,5.20
2022-10-06T02:36:26.399Z,4.15
2022-10-06T02:38:54.649Z,5.22
2022-10-06T02:41:21.657Z,6.30
2022-10-06T02:43:48.674Z,3.03
2022-10-06T02:46:15.843Z,5.00
2022-10-06T02:48:52.015Z,3.70
2022-10-06T02:51:21.210Z,6.38
2022-10-06T02:53:49.946Z,6.03
2022-10-06T02:56:19.785Z,4.60
2022-10-06T02:58:48.681Z,4.25
2022-10-06T03:01:27.467Z,5.28
2022-10-06T03:03:57.622Z,3.65
2022-10-06T03:06:31.165Z,4.50
2022-10-06T03:09:17.753Z,4.43
2022-10-06T03:11:45.042Z,3.85
2022-10-06T03:14:21.568Z,4.88
2022-10-06T03:16:51.962Z,4.28
2022-10-06T03:19:25.767Z,3.05
2022-10-06T03:21:53.647Z,3.80
2022-10-06T03:24:23.381Z,3.55
2022-10-06T03:26:54.716Z,4.03
2022-10-06T03:29:21.766Z,3.58
2022-10-06T03:31:53.885Z,3.45
2022-10-06T03:34:20.949Z,4.43
2022-10-06T03:36:48.278Z,4.32
2022-10-06T03:39:18.901Z,4.20
2022-10-06T03:41:46.151Z,3.10
2022-10-06T03:44:14.267Z,3.30
2022-10-06T03:46:42.907Z,3.00
2022-10-06T03:49:10.490Z,2.72
2022-10-06T03:51:40.326Z,3.30
2022-10-06T03:54:12.581Z,4.07
2022-10-06T03:56:43.018Z,3.20
2022-10-06T03:59:14.011Z,5.53
2022-10-06T04:01:46.279Z,4.28
2022-10-06T04:04:17.475Z,4.00
2022-10-06T04:06:48.235Z,3.33
2022-10-06T04:09:18.469Z,2.83
2022-10-06T04:11:45.392Z,2.90
2022-10-06T04:14:15.579Z,6.13
2022-10-06T04:16:44.467Z,3.72
2022-10-06T04:19:14.259Z,4.78
2022-10-06T04:21:47.330Z,3.75
2022-10-06T04:24:18.704Z,3.47
2022-10-06T04:26:50.776Z,3.47
2022-10-06T04:29:18.742Z,4.00
2022-10-06T04:31:50.667Z,7.13
2022-10-06T04:34:25.622Z,2.63
2022-10-06T04:36:53.670Z,3.25
2022-10-06T04:39:20.980Z,4.10
2022-10-06T04:41:47.851Z,4.38
2022-10-06T04:44:22.362Z,3.85
2022-10-06T04:46:50.047Z,4.43
2022-10-06T04:49:20.554Z,3.88
2022-10-06T04:51:50.424Z,6.07
2022-10-06T04:54:19.260Z,4.57
2022-10-06T04:56:48.805Z,4.47
2022-10-06T04:59:18.001Z,3.50
2022-10-06T05:01:49.248Z,3.88
2022-10-06T05:04:17.057Z,7.22
2022-10-06T05:06:44.389Z,6.25
2022-10-06T05:09:14.829Z,9.45
2022-10-06T05:11:48.247Z,3.70
2022-10-06T05:14:19.003Z,3.50
2022-10-06T05:16:48.778Z,2.50
2022-10-06T05:19:16.732Z,2.60
2022-10-06T05:21:43.597Z,3.53
2022-10-06T05:24:14.260Z,5.00
2022-10-06T05:26:41.666Z,3.10
2022-10-06T05:29:11.767Z,2.95
2022-10-06T05:31:41.308Z,3.15
2022-10-06T05:34:08.720Z,2.85
2022-10-06T05:36:36.749Z,2.35
2022-10-06T05:39:05.606Z,5.32
2022-10-06T05:41:40.352Z,3.88
2022-10-06T05:44:09.757Z,5.65
2022-10-06T05:46:38.987Z,4.72
2022-10-06T05:49:13.014Z,2.97
2022-10-06T05:54:30.878Z,2.67
2022-10-06T05:56:57.782Z,2.42
2022-10-06T05:59:24.759Z,3.63
2022-10-06T06:01:54.158Z,1.45
2022-10-06T06:04:31.889Z,12.13
2022-10-06T06:06:58.780Z,5.20
2022-10-06T06:09:29.047Z,3.10
2022-10-06T06:12:01.035Z,1.58
2022-10-06T06:14:54.862Z,6.32
2022-10-06T06:17:25.417Z,2.78
2022-10-06T06:19:52.314Z,3.63
2022-10-06T06:22:19.300Z,1.58
2022-10-06T06:24:48.795Z,2.72
2022-10-06T06:27:16.244Z,3.42
2022-10-06T06:29:44.004Z,0.73
2022-10-06T06:32:10.912Z,1.65
2022-10-06T06:34:37.917Z,1.00
2022-10-06T06:37:10.453Z,2.10
2022-10-06T06:39:39.941Z,3.25
2022-10-06T06:42:08.644Z,2.47
2022-10-06T06:44:55.829Z,1.40
2022-10-06T06:47:37.140Z,5.00
2022-10-06T06:50:10.351Z,4.43
2022-10-06T06:52:39.338Z,2.88
2022-10-06T06:55:09.056Z,4.38
2022-10-06T06:57:36.106Z,2.28
2022-10-06T07:00:08.517Z,1.08
2022-10-06T07:02:37.675Z,3.20
2022-10-06T07:05:05.152Z,1.17
2022-10-06T07:07:32.287Z,1.30
2022-10-06T07:09:59.929Z,2.25
2022-10-06T07:12:26.836Z,2.38
2022-10-06T07:15:15.803Z,1.85
2022-10-06T07:18:04.049Z,0.85
2022-10-06T07:20:50.863Z,6.82
2022-10-06T07:23:39.577Z,2.60
2022-10-06T07:26:14.436Z,2.70
2022-10-06T07:28:42.563Z,2.88
2022-10-06T07:31:10.863Z,1.65
2022-10-06T07:33:40.958Z,1.58
2022-10-06T07:36:09.187Z,3.88
2022-10-06T07:38:36.365Z,2.88
2022-10-06T07:41:20.365Z,4.55
2022-10-06T07:43:55.042Z,18.88
2022-10-06T07:46:23.180Z,11.80
2022-10-06T07:49:03.914Z,14.43
2022-10-06T07:51:31.618Z,15.85
2022-10-06T07:53:59.529Z,27.80
2022-10-06T07:56:51.186Z,23.58
2022-10-06T07:59:21.155Z,13.73
2022-10-06T08:01:50.193Z,18.25
2022-10-06T08:04:17.109Z,12.10
2022-10-06T08:06:44.594Z,29.52
2022-10-06T08:09:11.465Z,48.40
2022-10-06T08:11:38.298Z,37.88
2022-10-06T08:14:05.231Z,12.10
2022-10-06T08:16:32.203Z,16.88
2022-10-06T08:18:59.604Z,9.90
2022-10-06T08:21:34.485Z,21.02
2022-10-06T08:24:02.217Z,14.95
2022-10-06T08:26:30.178Z,14.02
2022-10-06T08:29:00.476Z,17.88
2022-10-06T08:31:27.671Z,13.60
2022-10-06T08:33:56.994Z,10.98
2022-10-06T08:36:31.051Z,10.70
2022-10-06T08:38:58.764Z,9.27
2022-10-06T08:41:39.843Z,7.03
2022-10-06T08:44:19.361Z,13.68
2022-10-06T08:47:17.862Z,9.38
2022-10-06T08:49:47.474Z,7.35
2022-10-06T08:52:49.849Z,10.35
2022-10-06T08:55:37.638Z,9.55
2022-10-06T08:58:16.445Z,10.43
2022-10-06T09:00:43.508Z,11.20
2022-10-06T09:03:23.968Z,8.32
2022-10-06T09:05:55.069Z,14.50
2022-10-06T09:08:53.670Z,5.75
2022-10-06T09:11:35.058Z,7.35
2022-10-06T09:14:10.777Z,5.28
2022-10-06T09:16:41.697Z,12.68
2022-10-06T09:19:35.280Z,9.10
2022-10-06T09:22:04.910Z,11.95
2022-10-06T09:24:42.384Z,4.75
2022-10-06T09:27:24.096Z,6.32
2022-10-06T09:29:52.851Z,7.13
2022-10-06T09:32:22.931Z,7.68
2022-10-06T09:34:59.842Z,6.00
2022-10-06T09:37:27.563Z,4.75
2022-10-06T09:39:55.319Z,9.85
2022-10-06T09:42:29.897Z,4.07
2022-10-06T10:16:40.806Z,3.70
2022-10-06T10:19:25.221Z,3.83
2022-10-06T10:21:53.783Z,3.58
2022-10-06T10:24:41.200Z,4.80
2022-10-06T10:27:21.883Z,10.10
2022-10-06T10:30:08.034Z,2.90
2022-10-06T10:32:50.385Z,5.30
2022-10-06T10:35:37.411Z,3.28
2022-10-06T10:40:49.290Z,3.85
2022-10-06T10:43:22.399Z,2.47
2022-10-06T10:46:10.337Z,3.28
2022-10-06T10:48:46.117Z,3.88
2022-10-06T10:51:15.691Z,5.55
2022-10-06T10:54:05.174Z,5.35
2022-10-06T10:56:33.767Z,4.88
2022-10-06T10:59:07.262Z,2.55
2022-10-06T11:01:55.449Z,3.40
2022-10-06T11:04:22.446Z,5.82
2022-10-06T11:07:01.385Z,4.07
2022-10-06T11:09:58.599Z,7.97
2022-10-06T11:12:44.820Z,7.20
2022-10-06T11:15:33.211Z,6.95
2022-10-06T11:18:14.685Z,2.65
2022-10-06T11:21:01.299Z,2.05
2022-10-06T11:23:40.699Z,3.85
2022-10-06T11:26:43.887Z,6.22
2022-10-06T11:29:25.725Z,3.88
2022-10-06T11:32:15.710Z,3.15
2022-10-06T11:34:44.992Z,2.63
2022-10-06T11:37:30.593Z,7.35
2022-10-06T11:40:28.290Z,4.43
2022-10-06T11:43:27.576Z,1.58
2022-10-06T11:46:15.319Z,4.38
2022-10-06T11:48:42.732Z,3.28
2022-10-06T11:51:24.856Z,1.65
2022-10-06T11:53:55.792Z,3.85
2022-10-06T11:56:35.659Z,4.20
2022-10-06T11:59:10.031Z,2.40
2022-10-06T12:01:39.148Z,5.68
2022-10-06T12:04:09.036Z,6.70
2022-10-06T12:06:42.090Z,5.97
2022-10-06T12:09:44.817Z,2.92
2022-10-06T12:12:21.054Z,6.70
2022-10-06T12:18:28.083Z,2.90
2022-10-06T12:21:33.263Z,6.68
2022-10-06T12:24:06.396Z,3.33
2022-10-06T12:26:49.450Z,6.53
2022-10-06T12:29:46.233Z,2.75
2022-10-06T12:32:21.727Z,2.53
2022-10-06T12:35:15.658Z,6.88
2022-10-06T12:37:53.049Z,2.63
2022-10-06T12:40:41.739Z,4.60
2022-10-06T12:43:14.519Z,2.65
2022-10-06T12:45:49.087Z,5.35
2022-10-06T12:48:34.160Z,3.17
2022-10-06T12:51:06.259Z,1.73
2022-10-06T12:53:41.463Z,7.07
2022-10-06T12:56:23.883Z,1.75
2022-10-06T12:58:50.783Z,3.22
2022-10-06T13:01:18.307Z,1.98
2022-10-06T13:03:50.152Z,4.20
2022-10-06T13:06:25.289Z,3.80
2022-10-06T13:09:14.484Z,2.38
2022-10-06T13:11:41.420Z,2.28
2022-10-06T13:14:13.388Z,5.75
2022-10-06T13:16:44.952Z,14.73
2022-10-06T13:19:17.178Z,3.92
2022-10-06T13:21:45.071Z,3.33
2022-10-06T13:24:14.584Z,2.88
2022-10-06T13:26:42.131Z,3.72
2022-10-06T13:29:22.273Z,2.78
2022-10-06T13:31:52.921Z,7.13
2022-10-06T13:34:43.366Z,10.55
2022-10-06T13:37:15.531Z,2.17
2022-10-06T13:39:42.649Z,2.55
2022-10-06T13:42:18.432Z,3.42
2022-10-06T13:45:00.453Z,4.28
2022-10-06T13:47:33.117Z,3.17
2022-10-06T13:50:06.779Z,7.70
2022-10-06T13:52:37.848Z,6.72
2022-10-06T13:55:14.156Z,2.85
2022-10-06T13:58:06.826Z,4.00
2022-10-06T14:00:52.831Z,4.47
2022-10-06T14:06:22.248Z,5.18
2022-10-06T14:08:55.813Z,6.18
2022-10-06T14:11:29.254Z,7.22
2022-10-06T14:14:04.805Z,4.45
2022-10-06T14:16:31.974Z,5.00
2022-10-06T14:19:04.614Z,2.67
2022-10-06T14:21:45.272Z,8.20
2022-10-06T14:24:21.079Z,4.95
2022-10-06T14:26:49.920Z,3.88
2022-10-06T14:29:18.193Z,6.45
2022-10-06T14:31:45.932Z,6.88
2022-10-06T14:34:14.773Z,7.93
2022-10-06T14:36:47.120Z,5.28
2022-10-06T14:39:15.497Z,9.05
2022-10-06T14:41:42.429Z,2.70
2022-10-06T14:44:11.418Z,2.25
2022-10-06T14:46:40.611Z,1.90
2022-10-06T14:49:12.434Z,2.67
2022-10-06T14:51:41.349Z,7.50
2022-10-06T14:54:10.515Z,1.70
2022-10-06T14:56:39.154Z,7.88
2022-10-06T14:59:08.411Z,5.60
2022-10-06T15:01:37.829Z,2.58
2022-10-06T15:04:11.132Z,7.03
2022-10-06T15:06:57.513Z,2.88
2022-10-06T15:09:24.881Z,5.07
2022-10-06T15:11:54.170Z,3.08
2022-10-06T15:14:24.857Z,22.42
2022-10-06T15:16:51.950Z,29.50
2022-10-06T15:19:18.948Z,12.40
2022-10-06T15:21:46.476Z,3.10
2022-10-06T15:24:16.187Z,4.18
2022-10-06T15:27:02.481Z,6.10
2022-10-06T15:29:29.806Z,10.02
2022-10-06T15:31:58.773Z,2.92
2022-10-06T15:34:28.299Z,8.65
2022-10-06T15:36:56.952Z,4.95
2022-10-06T15:39:26.309Z,5.00
2022-10-06T15:41:53.966Z,4.43
2022-10-06T15:44:21.856Z,5.78
2022-10-06T15:46:53.841Z,12.55
2022-10-06T15:49:22.810Z,2.50
2022-10-06T15:51:59.393Z,4.32
2022-10-06T15:56:58.881Z,15.88
2022-10-06T15:59:27.562Z,4.13
2022-10-06T16:01:57.495Z,11.65
2022-10-06T16:04:36.017Z,16.08
2022-10-06T16:07:04.338Z,5.80
2022-10-06T16:09:43.665Z,10.45
2022-10-06T16:12:13.058Z,4.95
2022-10-06T16:14:40.162Z,5.10
2022-10-06T16:17:07.892Z,7.93
2022-10-06T16:19:38.007Z,6.72
2022-10-06T16:22:07.156Z,9.65
2022-10-06T16:24:34.493Z,8.38
2022-10-06T16:27:01.379Z,5.38
2022-10-06T16:29:28.737Z,4.68
2022-10-06T16:31:56.021Z,4.53
2022-10-06T16:34:23.539Z,3.08
2022-10-06T16:36:50.442Z,6.20
2022-10-06T16:39:22.297Z,3.33
2022-10-06T16:41:50.104Z,3.05
2022-10-06T16:44:17.726Z,3.45
2022-10-06T16:46:45.674Z,2.80
2022-10-06T16:49:13.025Z,4.50
2022-10-06T16:51:46.065Z,8.68
2022-10-06T16:54:14.567Z,8.02
2022-10-06T16:56:52.149Z,4.13
2022-10-06T16:59:21.769Z,4.32
2022-10-06T17:01:50.296Z,2.17
2022-10-06T17:04:19.617Z,2.10
2022-10-06T17:06:48.716Z,3.03
2022-10-06T17:09:17.994Z,5.40
2022-10-06T17:11:53.602Z,2.75
2022-10-06T17:14:21.737Z,1.48
2022-10-06T17:16:50.975Z,4.45
2022-10-06T17:19:19.149Z,1.63
2022-10-06T17:21:48.823Z,3.35
2022-10-06T17:24:18.299Z,1.77
2022-10-06T17:26:47.682Z,3.10
2022-10-06T17:29:21.454Z,3.13
2022-10-06T17:31:50.721Z,2.15
2022-10-06T17:34:21.842Z,2.47
2022-10-06T17:36:52.090Z,2.00
2022-10-06T17:39:24.521Z,3.85
2022-10-06T17:41:53.642Z,3.05
2022-10-06T17:44:24.256Z,2.28
2022-10-06T17:46:55.252Z,1.00
2022-10-06T17:49:24.165Z,1.58
2022-10-06T17:51:53.648Z,5.18
2022-10-06T17:54:23.459Z,3.97
2022-10-06T17:56:56.462Z,2.53
2022-10-06T17:59:31.729Z,2.05
2022-10-06T18:02:01.419Z,1.52
2022-10-06T18:04:29.127Z,3.08
2022-10-06T18:06:57.145Z,2.08
2022-10-06T18:09:24.189Z,2.58
2022-10-06T18:11:56.462Z,1.55
2022-10-06T18:14:26.202Z,1.08
2022-10-06T18:16:56.708Z,3.17
2022-10-06T18:19:31.168Z,2.47
2022-10-06T18:22:10.648Z,2.17
2022-10-06T18:24:38.088Z,1.30
2022-10-06T18:27:06.619Z,2.03
2022-10-06T18:29:38.835Z,4.32
2022-10-06T18:36:12.161Z,1.65
2022-10-06T18:37:41.645Z,2.08
2022-10-06T18:40:10.137Z,3.05
2022-10-06T18:42:38.121Z,1.20
2022-10-06T18:45:23.944Z,1.35
2022-10-06T18:48:09.632Z,1.73
2022-10-06T18:50:36.589Z,4.95
2022-10-06T18:53:04.601Z,2.67
2022-10-06T18:55:32.429Z,3.05
2022-10-06T18:57:59.313Z,2.20
2022-10-06T19:00:26.383Z,2.30
2022-10-06T19:02:55.601Z,4.65
2022-10-06T19:05:23.265Z,6.03
2022-10-06T19:07:52.984Z,3.50
2022-10-06T19:10:19.954Z,9.55
2022-10-06T19:12:48.396Z,5.00
2022-10-06T19:15:20.330Z,2.88
2022-10-06T19:17:48.163Z,1.80
2022-10-06T19:20:15.224Z,2.13
2022-10-06T19:22:43.544Z,2.00
2022-10-06T19:25:11.323Z,2.15
2022-10-06T19:27:38.304Z,5.18
2022-10-06T19:30:05.781Z,3.13
2022-10-06T19:32:32.879Z,2.08
2022-10-06T19:35:00.422Z,5.93
2022-10-06T19:37:30.251Z,2.55
2022-10-06T19:39:57.679Z,2.10
2022-10-06T19:42:43.540Z,2.42
2022-10-06T19:45:11.946Z,4.38
2022-10-06T19:47:39.408Z,4.00
2022-10-06T19:50:12.168Z,4.07
2022-10-06T19:52:41.141Z,10.20
2022-10-06T19:55:08.419Z,7.75
2022-10-06T19:57:35.698Z,9.23
2022-10-06T20:00:02.675Z,8.23
2022-10-06T20:02:42.392Z,5.57
2022-10-06T20:05:19.653Z,5.13
2022-10-06T20:07:47.325Z,3.25
2022-10-06T20:10:14.811Z,5.60
2022-10-06T20:12:41.800Z,4.43
2022-10-06T20:15:10.083Z,13.60
2022-10-06T20:17:37.492Z,5.28
2022-10-06T20:20:04.730Z,9.43
2022-10-06T20:22:31.903Z,7.20
2022-10-06T20:24:58.957Z,9.93
2022-10-06T20:27:25.977Z,11.93
2022-10-06T20:29:53.882Z,10.13
2022-10-06T20:32:21.455Z,8.27
2022-10-06T20:34:48.385Z,6.03
2022-10-06T20:37:15.293Z,4.43
2022-10-06T20:40:00.662Z,9.43
2022-10-06T20:42:28.052Z,8.27
2022-10-06T20:44:54.952Z,8.75
2022-10-06T20:47:22.747Z,5.28
2022-10-06T20:49:55.288Z,6.25
2022-10-06T20:52:24.031Z,3.85
2022-10-06T20:54:51.444Z,2.80
2022-10-06T20:57:18.512Z,3.88
2022-10-06T20:59:46.259Z,2.90
2022-10-06T21:02:13.551Z,3.10
2022-10-06T21:04:43.774Z,5.75
2022-10-06T21:07:11.244Z,2.60
2022-10-06T21:09:38.150Z,4.10
2022-10-06T21:12:05.182Z,3.13
2022-10-06T21:14:34.073Z,3.35
2022-10-06T21:17:01.086Z,5.13
2022-10-06T21:19:30.071Z,10.10
2022-10-06T21:21:57.126Z,2.95
2022-10-06T21:24:24.160Z,2.13
2022-10-06T21:26:52.863Z,5.93
2022-10-06T21:29:20.539Z,1.80
2022-10-06T21:31:47.489Z,5.30
2022-10-06T21:34:14.553Z,4.15
2022-10-06T21:36:43.458Z,4.78
2022-10-06T21:39:12.199Z,1.95
2022-10-06T21:41:40.005Z,4.47
2022-10-06T21:44:18.272Z,2.25
2022-10-06T21:46:48.055Z,2.95
2022-10-06T21:49:17.547Z,4.55
2022-10-06T21:51:46.428Z,2.45
2022-10-06T21:54:14.316Z,5.32
2022-10-06T21:56:41.553Z,5.00
2022-10-06T21:59:08.513Z,2.92
2022-10-06T22:01:37.894Z,4.85
2022-10-06T22:04:05.774Z,2.58
2022-10-06T22:06:35.255Z,1.70
2022-10-06T22:09:03.467Z,2.40
2022-10-06T22:11:33.239Z,6.57
2022-10-06T22:14:02.805Z,2.88
2022-10-06T22:16:33.138Z,2.47
2022-10-06T22:19:02.168Z,8.13
2022-10-06T22:21:31.965Z,3.00
2022-10-06T22:24:05.080Z,2.88
2022-10-06T22:26:34.232Z,2.75
2022-10-06T22:29:01.150Z,1.67
2022-10-06T22:31:28.747Z,3.60
2022-10-06T22:33:58.357Z,3.05
2022-10-06T22:36:26.317Z,5.43
2022-10-06T22:38:53.449Z,6.45
2022-10-06T22:41:21.204Z,3.65
2022-10-06T22:43:48.238Z,1.65
2022-10-06T22:46:15.575Z,2.17
2022-10-06T22:48:42.442Z,3.22
2022-10-06T22:51:09.432Z,3.45
2022-10-06T22:53:36.311Z,3.88
2022-10-06T22:56:04.121Z,3.47
2022-10-06T22:58:31.826Z,1.50
2022-10-06T23:00:58.993Z,1.77
2022-10-06T23:03:26.004Z,3.20
2022-10-06T23:05:57.742Z,2.67
2022-10-06T23:08:25.208Z,2.88
2022-10-06T23:10:52.681Z,1.95
2022-10-06T23:13:20.108Z,1.50
2022-10-06T23:15:47.266Z,2.15
2022-10-06T23:18:14.399Z,2.25
2022-10-06T23:20:41.252Z,2.28
2022-10-06T23:23:08.183Z,3.63
2022-10-06T23:25:38.591Z,1.60
2022-10-06T23:28:05.773Z,2.28
2022-10-06T23:30:35.003Z,5.18
2022-10-06T23:33:02.753Z,2.92
2022-10-06T23:35:29.606Z,1.98
2022-10-06T23:37:56.504Z,2.17
2022-10-06T23:40:23.334Z,5.35
2022-10-06T23:42:50.300Z,5.32
2022-10-06T23:45:17.194Z,2.72
2022-10-06T23:47:44.297Z,4.63
2022-10-06T23:50:11.414Z,5.95
2022-10-06T23:52:38.319Z,3.38
2022-10-06T23:55:05.668Z,3.40
2022-10-06T23:57:32.523Z,5.05
2022-10-06T23:59:59.431Z,3.83
